createdAt,value
2019-05-15T00:02:27.969Z,93.20
2019-05-15T00:04:58.527Z,92.50
2019-05-15T00:07:29.439Z,92.70
2019-05-15T00:09:58.672Z,92.80
2019-05-15T00:12:28.462Z,92.80
2019-05-15T00:14:58.123Z,92.80
2019-05-15T00:17:28.251Z,92.70
2019-05-15T00:19:58.233Z,92.30
2019-05-15T00:22:29.179Z,92.50
2019-05-15T00:24:58.249Z,92.20
2019-05-15T00:27:28.484Z,91.90
2019-05-15T00:29:57.916Z,92.40
2019-05-15T00:32:28.289Z,92.20
2019-05-15T00:34:58.252Z,91.90
2019-05-15T00:37:28.903Z,91.50
2019-05-15T00:39:59.218Z,91.30
2019-05-15T00:42:28.507Z,91.30
2019-05-15T00:44:58.483Z,91.40
2019-05-15T00:47:28.674Z,91.90
2019-05-15T00:49:58.112Z,92.00
2019-05-15T00:52:28.305Z,92.50
2019-05-15T00:54:58.929Z,92.60
2019-05-15T00:57:28.408Z,92.10
2019-05-15T00:59:58.977Z,93.30
2019-05-15T01:02:28.649Z,93.00
2019-05-15T01:04:58.510Z,92.80
2019-05-15T01:07:28.179Z,93.30
2019-05-15T01:09:57.956Z,93.40
2019-05-15T01:12:29.025Z,93.30
2019-05-15T01:14:58.343Z,93.50
2019-05-15T01:17:29.047Z,93.80
2019-05-15T01:19:58.821Z,94.00
2019-05-15T01:22:28.677Z,94.00
2019-05-15T01:24:58.974Z,93.30
2019-05-15T01:27:38.687Z,94.30
2019-05-15T01:30:08.951Z,94.50
2019-05-15T01:32:39.428Z,94.80
2019-05-15T01:35:09.858Z,95.00
2019-05-15T01:37:39.274Z,95.00
2019-05-15T01:40:09.179Z,95.20
2019-05-15T01:42:38.970Z,95.30
2019-05-15T01:45:09.235Z,95.60
2019-05-15T01:47:38.834Z,95.20
2019-05-15T01:50:09.472Z,95.00
2019-05-15T01:52:39.228Z,95.10
2019-05-15T01:55:09.440Z,95.40
2019-05-15T01:57:38.710Z,95.60
2019-05-15T02:00:09.153Z,95.70
2019-05-15T02:02:38.930Z,96.00
2019-05-15T02:05:09.360Z,96.20
2019-05-15T02:07:39.073Z,96.10
2019-05-15T02:10:09.584Z,96.50
2019-05-15T02:12:39.016Z,96.50
2019-05-15T02:15:08.932Z,96.70
2019-05-15T02:17:39.169Z,96.80
2019-05-15T02:20:09.196Z,96.70
2019-05-15T02:22:42.119Z,96.60
2019-05-15T02:25:09.190Z,96.60
2019-05-15T02:27:39.281Z,96.70
2019-05-15T02:30:21.429Z,96.40
2019-05-15T02:32:40.262Z,96.80
2019-05-15T02:35:10.167Z,96.90
2019-05-15T02:37:41.081Z,97.00
2019-05-15T02:40:10.858Z,97.10
2019-05-15T02:42:40.611Z,97.20
2019-05-15T02:45:10.576Z,97.20
2019-05-15T02:47:40.079Z,97.20
2019-05-15T02:50:10.996Z,97.20
2019-05-15T02:52:44.765Z,97.30
2019-05-15T02:55:11.376Z,97.40
2019-05-15T02:57:40.320Z,97.40
2019-05-15T03:00:10.686Z,97.40
2019-05-15T03:02:41.574Z,97.40
2019-05-15T03:05:11.313Z,97.30
2019-05-15T03:07:40.837Z,97.20
2019-05-15T03:10:10.454Z,97.30
2019-05-15T03:12:40.805Z,97.70
2019-05-15T03:15:13.390Z,97.80
2019-05-15T03:17:42.415Z,97.90
2019-05-15T03:20:11.793Z,98.20
2019-05-15T03:22:40.934Z,98.10
2019-05-15T03:25:11.274Z,98.10
2019-05-15T03:27:40.618Z,98.20
2019-05-15T03:30:13.815Z,98.40
2019-05-15T03:32:52.432Z,98.40
2019-05-15T03:35:15.218Z,98.40
2019-05-15T03:37:42.153Z,98.10
2019-05-15T03:40:11.625Z,97.90
2019-05-15T03:42:40.667Z,97.70
2019-05-15T03:45:10.584Z,97.60
2019-05-15T03:47:40.553Z,97.60
2019-05-15T03:50:10.702Z,97.80
2019-05-15T03:52:40.052Z,98.20
2019-05-15T03:55:10.643Z,98.40
2019-05-15T03:57:40.577Z,98.50
2019-05-15T04:00:10.414Z,98.50
2019-05-15T04:02:39.942Z,98.40
2019-05-15T04:05:12.019Z,98.00
2019-05-15T04:07:40.266Z,98.00
2019-05-15T04:10:10.515Z,97.70
2019-05-15T04:12:40.756Z,97.60
2019-05-15T04:15:10.744Z,97.70
2019-05-15T04:17:40.706Z,97.30
2019-05-15T04:20:10.741Z,97.20
2019-05-15T04:22:40.483Z,97.00
2019-05-15T04:25:10.413Z,96.40
2019-05-15T04:27:42.767Z,95.70
2019-05-15T04:30:12.180Z,94.50
2019-05-15T04:32:41.181Z,93.30
2019-05-15T04:35:10.331Z,92.70
2019-05-15T04:37:40.995Z,92.00
2019-05-15T04:40:10.931Z,88.60
2019-05-15T04:42:40.216Z,86.40
2019-05-15T04:45:10.808Z,82.60
2019-05-15T04:47:40.297Z,80.60
2019-05-15T04:50:10.437Z,76.00
2019-05-15T04:52:43.138Z,67.60
2019-05-15T04:55:10.868Z,63.10
2019-05-15T04:57:40.935Z,59.90
2019-05-15T05:00:10.800Z,53.20
2019-05-15T05:02:40.687Z,55.30
2019-05-15T05:05:10.803Z,50.40
2019-05-15T05:07:40.021Z,48.80
2019-05-15T05:10:10.073Z,46.70
2019-05-15T05:12:41.850Z,46.10
2019-05-15T05:15:10.506Z,43.00
2019-05-15T05:17:39.566Z,42.70
2019-05-15T05:20:09.055Z,41.70
2019-05-15T05:22:39.427Z,43.10
2019-05-15T05:25:08.834Z,44.50
2019-05-15T05:27:38.493Z,46.10
2019-05-15T05:30:09.229Z,46.90
2019-05-15T05:32:39.217Z,51.70
2019-05-15T05:35:11.984Z,55.80
2019-05-15T05:37:41.049Z,62.70
2019-05-15T05:40:10.386Z,67.90
2019-05-15T05:42:39.318Z,71.70
2019-05-15T05:45:09.506Z,73.40
2019-05-15T05:47:38.725Z,74.50
2019-05-15T05:50:08.883Z,76.30
2019-05-15T05:52:39.086Z,77.50
2019-05-15T05:55:09.015Z,74.50
2019-05-15T05:57:38.484Z,76.20
2019-05-15T06:00:09.321Z,76.50
2019-05-15T06:02:47.436Z,75.90
2019-05-15T06:05:09.795Z,77.10
2019-05-15T06:07:39.009Z,76.10
2019-05-15T06:10:09.250Z,76.00
2019-05-15T06:12:38.977Z,75.50
2019-05-15T06:15:09.218Z,73.40
2019-05-15T06:17:39.146Z,74.40
2019-05-15T06:20:08.678Z,74.20
2019-05-15T06:22:38.668Z,74.20
2019-05-15T06:25:11.216Z,73.20
2019-05-15T06:27:39.340Z,73.30
2019-05-15T06:30:09.342Z,72.90
2019-05-15T06:32:40.119Z,73.90
2019-05-15T06:35:09.974Z,73.30
2019-05-15T06:37:39.645Z,72.10
2019-05-15T06:40:09.259Z,71.50
2019-05-15T06:42:39.316Z,72.90
2019-05-15T06:45:09.406Z,70.50
2019-05-15T06:47:39.436Z,70.90
2019-05-15T06:50:09.494Z,70.70
2019-05-15T06:52:38.424Z,70.50
2019-05-15T06:55:09.305Z,71.60
2019-05-15T06:57:39.706Z,69.60
2019-05-15T07:00:09.569Z,69.90
2019-05-15T07:02:38.569Z,68.60
2019-05-15T07:05:08.114Z,69.50
2019-05-15T07:07:38.670Z,69.30
2019-05-15T07:10:09.243Z,69.30
2019-05-15T07:12:39.225Z,68.50
2019-05-15T07:15:09.487Z,68.70
2019-05-15T07:17:39.299Z,69.90
2019-05-15T07:20:09.611Z,67.80
2019-05-15T07:22:39.249Z,68.60
2019-05-15T07:25:09.550Z,69.00
2019-05-15T07:27:39.208Z,66.90
2019-05-15T07:30:12.117Z,66.30
2019-05-15T07:32:40.866Z,67.20
2019-05-15T07:35:10.565Z,64.50
2019-05-15T07:37:39.554Z,66.60
2019-05-15T07:40:09.654Z,64.80
2019-05-15T07:42:38.991Z,62.90
2019-05-15T07:45:09.962Z,64.20
2019-05-15T07:47:39.020Z,63.80
2019-05-15T07:50:09.565Z,63.00
2019-05-15T07:52:40.073Z,65.70
2019-05-15T07:55:09.955Z,66.00
2019-05-15T07:57:39.763Z,60.50
2019-05-15T08:00:11.077Z,60.00
2019-05-15T08:02:40.039Z,61.50
2019-05-15T08:05:09.834Z,59.80
2019-05-15T08:07:39.394Z,59.20
2019-05-15T08:10:11.433Z,62.30
2019-05-15T08:12:40.512Z,60.40
2019-05-15T08:15:12.376Z,59.10
2019-05-15T08:20:14.148Z,60.90
2019-05-15T08:22:45.822Z,58.40
2019-05-15T08:25:30.096Z,60.00
2019-05-15T08:26:05.637Z,59.00
2019-05-15T08:27:45.157Z,58.40
2019-05-15T08:30:15.356Z,59.30
2019-05-15T08:32:44.314Z,59.70
2019-05-15T08:35:13.735Z,59.20
2019-05-15T08:37:42.743Z,58.90
2019-05-15T08:40:14.268Z,57.40
2019-05-15T08:42:43.287Z,57.80
2019-05-15T08:45:12.950Z,57.90
2019-05-15T08:47:41.934Z,58.60
2019-05-15T08:50:11.595Z,57.70
2019-05-15T08:52:40.576Z,59.10
2019-05-15T08:55:10.226Z,56.90
2019-05-15T08:57:39.199Z,58.40
2019-05-15T09:00:09.839Z,56.10
2019-05-15T09:02:38.994Z,56.70
2019-05-15T09:05:08.948Z,56.00
2019-05-15T09:07:38.757Z,56.90
2019-05-15T09:10:09.725Z,58.00
2019-05-15T09:12:39.123Z,56.70
2019-05-15T09:15:09.904Z,55.60
2019-05-15T09:17:40.002Z,54.30
2019-05-15T09:20:09.503Z,53.80
2019-05-15T09:22:38.628Z,56.10
2019-05-15T09:25:09.596Z,53.00
2019-05-15T09:27:38.705Z,53.50
2019-05-15T09:30:09.930Z,55.00
2019-05-15T09:32:39.491Z,53.50
2019-05-15T09:35:09.282Z,54.50
2019-05-15T09:37:38.822Z,54.10
2019-05-15T09:40:08.994Z,53.40
2019-05-15T09:42:38.786Z,55.40
2019-05-15T09:45:09.292Z,55.20
2019-05-15T09:47:39.652Z,54.40
2019-05-15T09:50:09.894Z,53.70
2019-05-15T09:52:39.405Z,53.50
2019-05-15T09:55:09.387Z,55.60
2019-05-15T09:57:39.127Z,55.50
2019-05-15T10:00:12.672Z,54.40
2019-05-15T10:02:41.668Z,53.50
2019-05-15T10:05:11.587Z,53.00
2019-05-15T10:07:40.755Z,54.40
2019-05-15T10:10:10.469Z,54.50
2019-05-15T10:12:39.487Z,55.30
2019-05-15T10:15:11.158Z,56.50
2019-05-15T10:17:40.084Z,55.30
2019-05-15T10:20:10.379Z,52.60
2019-05-15T10:22:39.310Z,53.50
2019-05-15T10:25:10.093Z,52.80
2019-05-15T10:27:39.865Z,52.40
2019-05-15T10:30:10.144Z,51.30
2019-05-15T10:32:39.798Z,54.00
2019-05-15T10:35:24.525Z,53.00
2019-05-15T10:37:40.592Z,52.60
2019-05-15T10:40:10.839Z,51.50
2019-05-15T10:42:40.201Z,51.60
2019-05-15T10:45:10.040Z,51.70
2019-05-15T10:47:39.187Z,50.00
2019-05-15T10:50:09.681Z,50.00
2019-05-15T10:52:38.743Z,51.80
2019-05-15T10:55:09.476Z,49.10
2019-05-15T10:57:42.871Z,49.20
2019-05-15T11:00:10.457Z,47.50
2019-05-15T11:02:39.666Z,48.30
2019-05-15T11:05:11.492Z,48.80
2019-05-15T11:07:40.488Z,47.60
2019-05-15T11:10:10.170Z,49.70
2019-05-15T11:12:39.450Z,48.40
2019-05-15T11:15:11.404Z,46.00
2019-05-15T11:17:40.831Z,45.40
2019-05-15T11:20:10.150Z,44.50
2019-05-15T11:22:42.807Z,46.70
2019-05-15T11:25:10.420Z,48.00
2019-05-15T11:27:39.564Z,49.20
2019-05-15T11:30:09.723Z,48.00
2019-05-15T11:32:39.260Z,47.50
2019-05-15T11:35:09.021Z,47.10
2019-05-15T11:37:45.904Z,47.10
2019-05-15T11:40:10.985Z,46.00
2019-05-15T11:42:40.487Z,47.10
2019-05-15T11:45:10.044Z,48.30
2019-05-15T11:47:40.057Z,46.40
2019-05-15T11:50:10.184Z,47.20
2019-05-15T11:52:40.313Z,47.70
2019-05-15T11:55:09.987Z,47.80
2019-05-15T11:57:46.826Z,50.10
2019-05-15T12:00:16.050Z,47.40
2019-05-15T12:02:54.892Z,46.90
2019-05-15T12:05:23.820Z,49.80
2019-05-15T12:07:52.765Z,47.70
2019-05-15T12:10:21.691Z,48.90
2019-05-15T12:12:50.654Z,46.10
2019-05-15T12:15:19.662Z,45.50
2019-05-15T12:17:48.708Z,46.40
2019-05-15T12:20:19.463Z,46.90
2019-05-15T12:22:48.917Z,48.60
2019-05-15T12:25:18.098Z,47.70
2019-05-15T12:27:49.117Z,48.90
2019-05-15T12:30:19.887Z,49.20
2019-05-15T12:32:49.530Z,50.20
2019-05-15T12:37:49.210Z,50.80
2019-05-15T13:00:24.882Z,47.20
2019-05-15T13:02:53.940Z,49.70
2019-05-15T13:05:22.942Z,49.80
2019-05-15T13:07:51.927Z,48.40
2019-05-15T13:10:20.981Z,48.00
2019-05-15T13:13:00.906Z,48.20
2019-05-15T13:15:21.686Z,47.90
2019-05-15T13:17:52.999Z,49.30
2019-05-15T13:20:21.459Z,50.30
2019-05-15T13:25:19.711Z,50.00
2019-05-15T13:27:48.900Z,47.60
2019-05-15T13:30:18.494Z,45.30
2019-05-15T13:32:49.710Z,47.00
2019-05-15T13:35:18.475Z,47.90
2019-05-15T13:37:49.392Z,46.50
2019-05-15T13:40:18.932Z,45.20
2019-05-15T13:42:49.271Z,47.50
2019-05-15T13:45:19.052Z,46.60
2019-05-15T13:47:47.995Z,45.70
2019-05-15T13:50:19.526Z,45.20
2019-05-15T13:52:48.276Z,48.00
2019-05-15T13:55:24.745Z,46.90
2019-05-15T13:57:48.676Z,47.70
2019-05-15T14:00:19.322Z,45.90
2019-05-15T14:02:48.402Z,44.80
2019-05-15T14:05:17.352Z,45.10
2019-05-15T14:07:50.757Z,45.70
2019-05-15T14:10:18.134Z,47.40
2019-05-15T14:12:47.820Z,46.90
2019-05-15T14:15:17.320Z,46.50
2019-05-15T14:17:48.177Z,46.00
2019-05-15T14:20:17.356Z,45.00
2019-05-15T14:22:48.409Z,45.40
2019-05-15T14:25:18.139Z,46.50
2019-05-15T14:27:48.640Z,45.40
2019-05-15T14:30:18.302Z,45.80
2019-05-15T14:32:48.410Z,47.50
2019-05-15T14:35:18.058Z,46.70
2019-05-15T14:38:01.818Z,47.10
2019-05-15T14:40:19.683Z,48.20
2019-05-15T14:42:48.740Z,48.90
2019-05-15T14:45:19.052Z,47.00
2019-05-15T14:47:49.215Z,46.90
2019-05-15T14:50:18.554Z,47.60
2019-05-15T14:52:48.055Z,47.70
2019-05-15T14:55:17.346Z,48.50
2019-05-15T14:57:48.810Z,50.00
2019-05-15T15:00:20.029Z,48.60
2019-05-15T15:02:49.490Z,47.20
2019-05-15T15:05:21.589Z,44.30
2019-05-15T15:07:49.449Z,43.70
2019-05-15T15:10:20.200Z,45.00
2019-05-15T15:12:50.046Z,44.50
2019-05-15T15:15:19.482Z,45.60
2019-05-15T15:17:49.240Z,45.40
2019-05-15T15:20:18.579Z,46.60
2019-05-15T15:22:48.566Z,46.60
2019-05-15T15:25:17.704Z,47.30
2019-05-15T15:27:48.023Z,47.70
2019-05-15T15:30:18.930Z,48.10
2019-05-15T15:32:48.994Z,49.60
2019-05-15T15:35:18.709Z,50.10
2019-05-15T15:37:48.703Z,48.60
2019-05-15T15:40:20.969Z,47.50
2019-05-15T15:42:49.942Z,46.70
2019-05-15T15:45:19.525Z,49.40
2019-05-15T15:47:48.477Z,45.90
2019-05-15T15:50:18.767Z,47.20
2019-05-15T15:52:48.835Z,47.40
2019-05-15T15:55:18.610Z,46.90
2019-05-15T15:57:48.680Z,47.90
2019-05-15T16:00:19.092Z,48.20
2019-05-15T16:02:48.786Z,49.50
2019-05-15T16:05:19.091Z,48.50
2019-05-15T16:07:48.598Z,48.90
2019-05-15T16:10:19.013Z,49.30
2019-05-15T16:12:49.261Z,50.10
2019-05-15T16:15:18.629Z,49.50
2019-05-15T16:17:48.785Z,48.20
2019-05-15T16:20:19.018Z,47.90
2019-05-15T16:22:48.569Z,48.30
2019-05-15T16:25:18.428Z,48.70
2019-05-15T16:27:48.790Z,47.70
2019-05-15T16:30:18.871Z,48.10
2019-05-15T16:32:47.939Z,48.90
2019-05-15T16:37:49.032Z,49.60
2019-05-15T16:40:18.390Z,50.50
2019-05-15T16:42:48.794Z,51.50
2019-05-15T16:45:18.291Z,51.60
2019-05-15T16:47:48.117Z,51.60
2019-05-15T16:50:18.090Z,51.30
2019-05-15T16:52:49.004Z,51.90
2019-05-15T16:55:18.364Z,52.70
2019-05-15T16:57:47.937Z,53.40
2019-05-15T17:00:18.764Z,53.40
2019-05-15T17:02:48.350Z,53.40
2019-05-15T17:05:18.582Z,53.80
2019-05-15T17:07:48.940Z,54.30
2019-05-15T17:10:18.255Z,53.80
2019-05-15T17:12:49.235Z,54.20
2019-05-15T17:15:18.569Z,54.80
2019-05-15T17:17:48.703Z,52.50
2019-05-15T17:20:18.223Z,52.40
2019-05-15T17:22:48.414Z,52.90
2019-05-15T17:25:38.213Z,53.00
2019-05-15T17:28:09.191Z,52.10
2019-05-15T17:30:38.466Z,53.80
2019-05-15T17:33:07.658Z,53.10
2019-05-15T17:35:38.113Z,53.40
2019-05-15T17:38:07.195Z,53.50
2019-05-15T17:40:37.776Z,54.50
2019-05-15T17:43:09.218Z,54.30
2019-05-15T17:45:39.001Z,55.80
2019-05-15T17:48:08.929Z,56.50
2019-05-15T17:50:48.655Z,56.70
2019-05-15T17:53:09.483Z,57.70
2019-05-15T17:55:38.556Z,58.70
2019-05-15T17:58:09.338Z,59.00
2019-05-15T18:00:39.364Z,59.60
2019-05-15T18:03:08.768Z,60.10
2019-05-15T18:05:39.115Z,60.70
2019-05-15T18:08:08.795Z,61.00
2019-05-15T18:10:38.430Z,62.00
2019-05-15T18:13:08.908Z,62.20
2019-05-15T18:15:38.689Z,62.60
2019-05-15T18:18:09.528Z,62.70
2019-05-15T18:20:38.608Z,62.40
2019-05-15T18:23:08.403Z,62.20
2019-05-15T18:25:38.356Z,61.50
2019-05-15T18:28:08.548Z,61.60
2019-05-15T18:30:38.908Z,62.30
2019-05-15T18:33:08.799Z,62.80
2019-05-15T18:35:38.722Z,63.20
2019-05-15T18:38:08.536Z,64.20
2019-05-15T18:40:38.383Z,64.50
2019-05-15T18:43:10.024Z,64.90
2019-05-15T18:45:38.446Z,63.90
2019-05-15T18:48:07.370Z,64.00
2019-05-15T18:50:37.821Z,64.30
2019-05-15T18:53:08.914Z,64.40
2019-05-15T18:55:38.588Z,64.00
2019-05-15T18:58:08.795Z,63.70
2019-05-15T19:00:39.910Z,63.70
2019-05-15T19:03:19.190Z,63.80
2019-05-15T19:05:39.785Z,63.10
2019-05-15T19:08:08.718Z,63.50
2019-05-15T19:10:38.582Z,63.80
2019-05-15T19:13:08.853Z,65.10
2019-05-15T19:15:38.523Z,65.60
2019-05-15T19:18:08.084Z,66.20
2019-05-15T19:20:38.894Z,66.70
2019-05-15T19:23:08.520Z,67.70
2019-05-15T19:25:37.953Z,69.30
2019-05-15T19:28:08.501Z,69.40
2019-05-15T19:30:38.870Z,70.40
2019-05-15T19:33:08.093Z,71.40
2019-05-15T19:35:38.660Z,72.40
2019-05-15T19:38:07.931Z,73.50
2019-05-15T19:40:38.987Z,74.60
2019-05-15T19:43:09.241Z,76.80
2019-05-15T19:45:38.730Z,77.70
2019-05-15T19:48:08.990Z,77.80
2019-05-15T19:50:38.288Z,77.90
2019-05-15T19:53:08.195Z,80.70
2019-05-15T19:55:37.318Z,78.80
2019-05-15T19:58:08.652Z,79.40
2019-05-15T20:00:38.779Z,80.00
2019-05-15T20:03:08.367Z,80.00
2019-05-15T20:05:38.118Z,81.90
2019-05-15T20:08:07.825Z,81.80
2019-05-15T20:10:39.248Z,82.40
2019-05-15T20:13:07.642Z,83.20
2019-05-15T20:15:37.951Z,83.90
2019-05-15T20:18:07.904Z,83.30
2019-05-15T20:20:38.645Z,84.40
2019-05-15T20:23:08.506Z,83.20
2019-05-15T20:25:38.283Z,84.80
2019-05-15T20:28:08.440Z,84.70
2019-05-15T20:30:38.878Z,86.50
2019-05-15T20:33:08.920Z,87.40
2019-05-15T20:35:38.581Z,87.50
2019-05-15T20:38:07.635Z,87.90
2019-05-15T20:40:36.570Z,87.80
2019-05-15T20:43:07.970Z,87.50
2019-05-15T20:45:36.161Z,87.90
2019-05-15T20:48:05.296Z,88.10
2019-05-15T20:50:34.518Z,87.80
2019-05-15T20:53:03.514Z,87.40
2019-05-15T20:55:32.462Z,87.60
2019-05-15T20:58:01.444Z,87.60
2019-05-15T21:00:30.394Z,88.10
2019-05-15T21:02:59.372Z,86.90
2019-05-15T21:05:28.383Z,86.90
2019-05-15T21:07:57.719Z,86.80
2019-05-15T21:10:26.650Z,87.60
2019-05-15T21:12:55.715Z,87.90
2019-05-15T21:15:24.782Z,88.60
2019-05-15T21:17:58.506Z,89.10
2019-05-15T21:20:24.419Z,89.60
2019-05-15T21:22:53.369Z,90.00
2019-05-15T21:25:22.680Z,90.30
2019-05-15T21:27:51.602Z,90.20
2019-05-15T21:30:20.886Z,90.20
2019-05-15T21:32:50.050Z,90.70
2019-05-15T21:35:19.097Z,90.90
2019-05-15T21:37:48.869Z,90.90
2019-05-15T21:40:18.506Z,91.30
2019-05-15T21:42:49.239Z,90.80
2019-05-15T21:45:18.769Z,91.50
2019-05-15T21:47:47.782Z,91.70
2019-05-15T21:50:19.418Z,92.00
2019-05-15T21:52:49.490Z,92.80
2019-05-15T21:55:19.014Z,92.20
2019-05-15T21:57:47.984Z,93.10
2019-05-15T22:00:28.965Z,92.80
2019-05-15T22:02:58.602Z,93.50
2019-05-15T22:05:28.476Z,93.50
2019-05-15T22:07:58.765Z,93.30
2019-05-15T22:10:28.886Z,92.80
2019-05-15T22:12:59.031Z,92.90
2019-05-15T22:15:28.906Z,92.70
2019-05-15T22:17:58.169Z,93.10
2019-05-15T22:20:30.184Z,92.60
2019-05-15T22:22:59.578Z,93.50
2019-05-15T22:25:28.998Z,92.80
2019-05-15T22:27:58.838Z,93.90
2019-05-15T22:30:30.232Z,93.80
2019-05-15T22:32:58.897Z,93.40
2019-05-15T22:35:29.472Z,92.60
2019-05-15T22:37:58.734Z,92.90
2019-05-15T22:40:28.884Z,92.60
2019-05-15T22:42:59.079Z,93.50
2019-05-15T22:45:28.881Z,92.70
2019-05-15T22:47:58.542Z,92.50
2019-05-15T22:50:28.268Z,92.80
2019-05-15T22:52:58.671Z,91.20
2019-05-15T22:55:28.909Z,91.10
2019-05-15T22:57:59.159Z,90.90
2019-05-15T23:00:29.242Z,89.50
2019-05-15T23:02:58.417Z,90.40
2019-05-15T23:05:29.245Z,90.90
2019-05-15T23:07:59.166Z,90.80
2019-05-15T23:10:29.276Z,90.60
2019-05-15T23:12:58.513Z,90.80
2019-05-15T23:15:28.221Z,90.60
2019-05-15T23:18:17.888Z,90.70
2019-05-15T23:20:47.888Z,90.10
2019-05-15T23:23:18.143Z,90.30
2019-05-15T23:25:48.546Z,89.50
2019-05-15T23:28:17.654Z,90.20
2019-05-15T23:30:48.554Z,89.40
2019-05-15T23:33:18.849Z,90.00
2019-05-15T23:35:48.582Z,90.20
2019-05-15T23:38:17.768Z,90.70
2019-05-15T23:40:48.321Z,90.60
2019-05-15T23:43:18.970Z,90.20
2019-05-15T23:45:48.437Z,90.90
2019-05-15T23:48:17.558Z,90.70
2019-05-15T23:50:48.462Z,90.80
2019-05-15T23:53:19.607Z,90.50
2019-05-15T23:55:47.760Z,90.40
2019-05-15T23:58:18.934Z,90.80
